createdAt,value
2023-01-29T00:01:54.390Z,103152.16
2023-01-29T00:04:20.972Z,103132.72
2023-01-29T00:06:47.539Z,103133.53
2023-01-29T00:09:14.439Z,103137.75
2023-01-29T00:11:41.134Z,103120.84
2023-01-29T00:14:07.972Z,103115.72
2023-01-29T00:16:34.442Z,103108.09
2023-01-29T00:19:02.546Z,103119.09
2023-01-29T00:21:31.058Z,103102.97
2023-01-29T00:23:58.862Z,103096.19
2023-01-29T00:26:26.003Z,103097.84
2023-01-29T00:28:52.507Z,103090.25
2023-01-29T00:31:21.817Z,103087.72
2023-01-29T00:33:48.965Z,103089.38
2023-01-29T00:36:17.748Z,103092.72
2023-01-29T00:38:44.807Z,103097.81
2023-01-29T00:41:34.459Z,103102.81
2023-01-29T00:44:20.223Z,103103.66
2023-01-29T00:46:46.739Z,103100.22
2023-01-29T00:49:13.251Z,103094.31
2023-01-29T00:51:40.084Z,103092.63
2023-01-29T00:54:07.037Z,103085.81
2023-01-29T00:56:37.412Z,103090.88
2023-01-29T00:59:04.585Z,103089.22
2023-01-29T01:01:49.355Z,103082.44
2023-01-29T01:04:15.874Z,103087.44
2023-01-29T01:06:43.126Z,103084.13
2023-01-29T01:09:43.613Z,103077.31
2023-01-29T01:12:10.068Z,103079.88
2023-01-29T01:14:36.497Z,103076.56
2023-01-29T01:17:02.978Z,103069.75
2023-01-29T01:19:29.512Z,103067.22
2023-01-29T01:21:55.932Z,103069.75
2023-01-29T01:24:23.392Z,103068.06
2023-01-29T01:26:49.938Z,103064.66
2023-01-29T01:29:16.413Z,103077.41
2023-01-29T01:31:42.852Z,103079.94
2023-01-29T01:34:09.310Z,103079.13
2023-01-29T01:36:35.758Z,103086.75
2023-01-29T01:39:02.225Z,103085.00
2023-01-29T01:41:30.612Z,103086.75
2023-01-29T01:44:00.131Z,103083.31
2023-01-29T01:46:31.601Z,103082.53
2023-01-29T01:49:05.007Z,103085.91
2023-01-29T01:51:34.009Z,103084.25
2023-01-29T01:54:05.644Z,103085.97
2023-01-29T01:56:40.612Z,103093.53
2023-01-29T01:59:14.570Z,103084.25
2023-01-29T02:01:47.887Z,103080.84
2023-01-29T02:04:36.912Z,103081.72
2023-01-29T02:07:25.658Z,103072.44
2023-01-29T02:09:56.672Z,103074.97
2023-01-29T02:12:23.342Z,103083.44
2023-01-29T02:14:51.776Z,103079.19
2023-01-29T02:17:19.997Z,103077.56
2023-01-29T02:20:19.748Z,103083.53
2023-01-29T02:22:56.027Z,103077.56
2023-01-29T02:25:58.004Z,103070.84
2023-01-29T02:28:32.722Z,103080.09
2023-01-29T02:31:09.528Z,103079.28
2023-01-29T02:33:59.536Z,103081.88
2023-01-29T02:36:45.435Z,103082.75
2023-01-29T02:39:17.373Z,103090.34
2023-01-29T02:42:25.215Z,103098.88
2023-01-29T02:45:08.090Z,103094.63
2023-01-29T02:47:42.588Z,103093.81
2023-01-29T02:50:18.579Z,103095.47
2023-01-29T02:53:03.268Z,103095.47
2023-01-29T02:55:45.530Z,103097.16
2023-01-29T02:58:19.708Z,103093.81
2023-01-29T03:00:48.001Z,103097.22
2023-01-29T03:03:19.503Z,103091.28
2023-01-29T03:05:57.080Z,103094.63
2023-01-29T03:08:50.069Z,103086.22
2023-01-29T03:11:17.779Z,103092.97
2023-01-29T03:13:57.965Z,103087.06
2023-01-29T03:16:37.133Z,103085.38
2023-01-29T03:19:18.907Z,103074.31
2023-01-29T03:21:51.219Z,103062.50
2023-01-29T03:25:00.134Z,103068.41
2023-01-29T03:27:55.286Z,103065.88
2023-01-29T03:30:44.348Z,103064.13
2023-01-29T03:33:13.192Z,103054.84
2023-01-29T03:35:51.976Z,103050.59
2023-01-29T03:38:19.686Z,103042.09
2023-01-29T03:40:53.048Z,103042.97
2023-01-29T03:43:26.557Z,103031.94
2023-01-29T03:45:58.724Z,103036.13
2023-01-29T03:48:35.083Z,103033.63
2023-01-29T03:51:35.462Z,103033.63
2023-01-29T03:54:20.148Z,103030.16
2023-01-29T03:57:02.894Z,103031.91
2023-01-29T03:59:45.042Z,103025.09
2023-01-29T04:02:29.963Z,103026.78
2023-01-29T04:04:59.808Z,103016.63
2023-01-29T04:07:29.730Z,103028.47
2023-01-29T04:10:01.603Z,103017.44
2023-01-29T04:12:38.532Z,103017.50
2023-01-29T04:15:09.998Z,103009.81
2023-01-29T04:17:41.592Z,103004.69
2023-01-29T04:20:09.497Z,103007.19
2023-01-29T04:22:39.426Z,103010.66
2023-01-29T04:25:16.086Z,103003.00
2023-01-29T04:28:23.352Z,103012.31
2023-01-29T04:31:05.439Z,103003.84
2023-01-29T04:33:40.016Z,103000.47
2023-01-29T04:36:38.200Z,103008.06
2023-01-29T04:39:54.175Z,103000.41
2023-01-29T04:42:33.239Z,102991.94
2023-01-29T04:45:11.122Z,102996.09
2023-01-29T04:48:07.609Z,102985.94
2023-01-29T04:50:55.945Z,103002.03
2023-01-29T04:53:36.238Z,102995.28
2023-01-29T04:56:48.268Z,102986.75
2023-01-29T04:59:21.150Z,102984.97
2023-01-29T05:01:48.817Z,102980.72
2023-01-29T05:04:19.681Z,102979.03
2023-01-29T05:06:49.157Z,102976.50
2023-01-29T05:09:17.764Z,102973.94
2023-01-29T05:11:47.485Z,102973.94
2023-01-29T05:14:17.130Z,102971.34
2023-01-29T05:16:47.597Z,102977.22
2023-01-29T05:19:16.127Z,102972.09
2023-01-29T05:21:46.255Z,102968.69
2023-01-29T05:24:18.390Z,102977.97
2023-01-29T05:27:06.715Z,102978.84
2023-01-29T05:29:33.212Z,102986.44
2023-01-29T05:31:59.949Z,102983.88
2023-01-29T05:34:26.587Z,102993.13
2023-01-29T05:36:53.516Z,102988.09
2023-01-29T05:39:20.001Z,102988.94
2023-01-29T05:41:46.445Z,102985.53
2023-01-29T05:44:13.228Z,102984.66
2023-01-29T05:46:39.819Z,102982.09
2023-01-29T05:49:06.750Z,102985.53
2023-01-29T05:51:33.265Z,102991.44
2023-01-29T05:53:59.691Z,102997.34
2023-01-29T05:56:26.218Z,102982.94
2023-01-29T05:58:52.754Z,102973.69
2023-01-29T06:01:22.421Z,102965.19
2023-01-29T06:03:48.815Z,102963.53
2023-01-29T06:06:16.346Z,102962.66
2023-01-29T06:08:42.937Z,102950.84
2023-01-29T06:11:11.759Z,102956.72
2023-01-29T06:13:38.892Z,102953.34
2023-01-29T06:16:10.311Z,102950.81
2023-01-29T06:18:37.536Z,102947.38
2023-01-29T06:21:06.059Z,102947.38
2023-01-29T06:23:33.607Z,102944.06
2023-01-29T06:26:05.685Z,102934.72
2023-01-29T06:28:32.456Z,102938.13
2023-01-29T06:31:11.543Z,102938.97
2023-01-29T06:33:47.553Z,102927.16
2023-01-29T06:36:14.013Z,102931.38
2023-01-29T06:38:40.436Z,102932.28
2023-01-29T06:41:12.066Z,102939.09
2023-01-29T06:43:39.672Z,102928.94
2023-01-29T06:46:08.201Z,102932.31
2023-01-29T06:48:35.214Z,102938.28
2023-01-29T06:51:07.020Z,102939.97
2023-01-29T06:53:34.492Z,102944.19
2023-01-29T06:56:01.141Z,102931.53
2023-01-29T06:58:27.634Z,102928.19
2023-01-29T07:00:54.235Z,102932.38
2023-01-29T07:03:20.754Z,102937.44
2023-01-29T07:05:51.989Z,102934.09
2023-01-29T07:08:18.899Z,102919.69
2023-01-29T07:10:45.485Z,102924.84
2023-01-29T07:13:11.896Z,102923.13
2023-01-29T07:15:38.330Z,102942.59
2023-01-29T07:18:12.048Z,102930.72
2023-01-29T07:20:40.636Z,102926.50
2023-01-29T07:23:10.834Z,102932.38
2023-01-29T07:25:37.739Z,102939.13
2023-01-29T07:28:04.822Z,102935.75
2023-01-29T07:30:31.476Z,102933.22
2023-01-29T07:33:07.523Z,102925.59
2023-01-29T07:35:42.350Z,102932.38
2023-01-29T07:38:10.348Z,102938.38
2023-01-29T07:40:37.081Z,102933.31
2023-01-29T07:43:06.583Z,102924.84
2023-01-29T07:45:35.122Z,102920.63
2023-01-29T07:48:01.565Z,102907.16
2023-01-29T07:50:28.051Z,102911.38
2023-01-29T07:52:54.984Z,102909.72
2023-01-29T07:59:16.471Z,102897.16
2023-01-29T08:01:42.963Z,102889.53
2023-01-29T08:04:09.477Z,102892.97
2023-01-29T08:06:35.958Z,102887.91
2023-01-29T08:09:02.554Z,102890.47
2023-01-29T08:11:29.060Z,102886.28
2023-01-29T08:13:56.659Z,102889.72
2023-01-29T08:16:23.405Z,102885.50
2023-01-29T08:18:49.862Z,102878.00
2023-01-29T08:21:16.466Z,102884.00
2023-01-29T08:23:42.896Z,102884.03
2023-01-29T08:26:09.448Z,102880.75
2023-01-29T08:28:38.602Z,102879.09
2023-01-29T08:31:12.851Z,102879.16
2023-01-29T08:33:39.611Z,102876.66
2023-01-29T08:36:07.380Z,102864.84
2023-01-29T08:38:33.964Z,102870.78
2023-01-29T08:41:00.442Z,102863.22
2023-01-29T08:43:26.929Z,102859.03
2023-01-29T08:45:53.406Z,102855.72
2023-01-29T08:48:20.059Z,102862.59
2023-01-29T08:50:46.467Z,102855.06
2023-01-29T08:53:12.944Z,102854.31
2023-01-29T08:55:40.539Z,102849.28
2023-01-29T08:58:09.043Z,102847.63
2023-01-29T09:00:36.037Z,102850.22
2023-01-29T09:03:17.553Z,102852.84
2023-01-29T09:05:44.049Z,102852.03
2023-01-29T09:08:10.637Z,102851.25
2023-01-29T09:10:37.239Z,102843.69
2023-01-29T09:13:04.141Z,102848.81
2023-01-29T09:15:30.969Z,102848.06
2023-01-29T09:17:57.486Z,102843.00
2023-01-29T09:20:24.516Z,102845.59
2023-01-29T09:22:59.084Z,102840.59
2023-01-29T09:25:25.631Z,102849.16
2023-01-29T09:27:54.232Z,102851.75
2023-01-29T09:30:20.872Z,102849.31
2023-01-29T09:32:53.586Z,102851.06
2023-01-29T09:35:23.625Z,102853.72
2023-01-29T09:37:51.332Z,102847.84
2023-01-29T09:40:35.735Z,102855.50
2023-01-29T09:43:07.159Z,102846.28
2023-01-29T09:45:39.525Z,102847.19
2023-01-29T09:48:13.200Z,102850.66
2023-01-29T09:50:44.133Z,102848.19
2023-01-29T09:53:39.232Z,102849.09
2023-01-29T09:56:13.229Z,102850.03
2023-01-29T09:58:42.381Z,102854.38
2023-01-29T10:01:29.329Z,102840.00
2023-01-29T10:04:21.129Z,102837.53
2023-01-29T10:07:11.220Z,102847.75
2023-01-29T10:09:43.602Z,102849.56
2023-01-29T10:12:22.135Z,102846.97
2023-01-29T10:15:04.813Z,102847.88
2023-01-29T10:18:00.246Z,102831.78
2023-01-29T10:21:01.823Z,102832.69
2023-01-29T10:23:38.575Z,102831.03
2023-01-29T10:26:05.173Z,102828.38
2023-01-29T10:28:46.467Z,102830.13
2023-01-29T10:31:28.560Z,102826.72
2023-01-29T10:34:03.382Z,102824.16
2023-01-29T10:36:42.885Z,102814.84
2023-01-29T10:39:18.669Z,102814.00
2023-01-29T10:41:45.096Z,102798.75
2023-01-29T10:44:20.723Z,102796.25
2023-01-29T10:47:13.509Z,102787.94
2023-01-29T10:50:06.547Z,102791.44
2023-01-29T10:52:35.926Z,102784.75
2023-01-29T10:55:21.156Z,102779.75
2023-01-29T10:58:08.924Z,102773.91
2023-01-29T11:00:41.356Z,102767.19
2023-01-29T11:03:28.028Z,102768.19
2023-01-29T11:05:58.184Z,102761.44
2023-01-29T11:09:00.099Z,102766.56
2023-01-29T11:11:46.181Z,102765.78
2023-01-29T11:14:22.872Z,102759.94
2023-01-29T11:16:49.659Z,102752.31
2023-01-29T11:19:16.668Z,102747.28
2023-01-29T11:21:56.590Z,102749.84
2023-01-29T11:24:23.719Z,102748.94
2023-01-29T11:26:51.859Z,102741.31
2023-01-29T11:29:30.421Z,102739.66
2023-01-29T11:31:58.715Z,102737.09
2023-01-29T11:34:27.749Z,102738.78
2023-01-29T11:37:02.888Z,102738.78
2023-01-29T11:39:32.192Z,102739.66
2023-01-29T11:42:04.428Z,102734.56
2023-01-29T11:44:40.766Z,102740.53
2023-01-29T11:47:16.453Z,102723.59
2023-01-29T11:49:49.571Z,102715.06
2023-01-29T11:52:20.554Z,102719.34
2023-01-29T11:54:51.983Z,102713.38
2023-01-29T11:57:27.721Z,102717.66
2023-01-29T11:59:56.706Z,102717.66
2023-01-29T12:02:31.866Z,102710.84
2023-01-29T12:05:04.711Z,102710.00
2023-01-29T12:07:32.748Z,102701.53
2023-01-29T12:10:00.198Z,102698.09
2023-01-29T12:12:32.601Z,102701.53
2023-01-29T12:15:21.354Z,102691.34
2023-01-29T12:17:56.298Z,102682.03
2023-01-29T12:20:33.394Z,102672.72
2023-01-29T12:23:03.489Z,102664.25
2023-01-29T12:26:16.112Z,102661.66
2023-01-29T12:29:13.430Z,102651.53
2023-01-29T12:31:50.429Z,102646.47
2023-01-29T12:34:32.502Z,102650.75
2023-01-29T12:37:11.367Z,102640.59
2023-01-29T12:39:37.858Z,102632.16
2023-01-29T12:42:24.767Z,102638.94
2023-01-29T12:45:01.414Z,102632.16
2023-01-29T12:47:27.808Z,102622.88
2023-01-29T12:50:00.560Z,102618.59
2023-01-29T12:52:39.771Z,102610.94
2023-01-29T12:55:19.568Z,102604.19
2023-01-29T12:57:53.837Z,102588.94
2023-01-29T13:00:27.086Z,102586.41
2023-01-29T13:03:21.506Z,102577.94
2023-01-29T13:05:52.448Z,102562.69
2023-01-29T13:08:43.292Z,102564.44
2023-01-29T13:11:26.649Z,102555.09
2023-01-29T13:13:59.353Z,102544.06
2023-01-29T13:16:45.230Z,102527.97
2023-01-29T13:19:24.221Z,102524.59
2023-01-29T13:21:53.054Z,102518.69
2023-01-29T13:24:25.619Z,102511.97
2023-01-29T13:26:52.209Z,102501.88
2023-01-29T13:29:27.795Z,102490.09
2023-01-29T13:31:56.679Z,102486.00
2023-01-29T13:34:28.509Z,102486.09
2023-01-29T13:37:04.256Z,102481.03
2023-01-29T13:39:34.145Z,102486.16
2023-01-29T13:42:02.854Z,102481.91
2023-01-29T13:44:36.603Z,102476.91
2023-01-29T13:47:07.231Z,102478.63
2023-01-29T13:49:53.058Z,102479.53
2023-01-29T13:53:02.250Z,102482.91
2023-01-29T13:55:37.722Z,102471.91
2023-01-29T13:58:15.806Z,102476.97
2023-01-29T14:00:42.139Z,102470.28
2023-01-29T14:03:08.850Z,102477.09
2023-01-29T14:05:40.932Z,102466.97
2023-01-29T14:08:14.648Z,102470.34
2023-01-29T14:10:43.217Z,102462.75
2023-01-29T14:13:15.705Z,102465.31
2023-01-29T14:15:42.348Z,102466.13
2023-01-29T14:18:08.723Z,102459.34
2023-01-29T14:20:46.071Z,102458.53
2023-01-29T14:23:40.407Z,102443.28
2023-01-29T14:26:30.208Z,102457.78
2023-01-29T14:29:07.678Z,102453.50
2023-01-29T14:31:52.178Z,102459.41
2023-01-29T14:34:30.988Z,102451.81
2023-01-29T14:37:21.993Z,102449.34
2023-01-29T14:39:55.709Z,102442.56
2023-01-29T14:42:37.591Z,102436.63
2023-01-29T14:45:22.038Z,102444.25
2023-01-29T14:47:48.484Z,102437.47
2023-01-29T14:50:33.267Z,102431.53
2023-01-29T14:53:15.475Z,102427.25
2023-01-29T14:56:05.447Z,102428.94
2023-01-29T14:58:42.758Z,102434.88
2023-01-29T15:01:36.224Z,102419.56
2023-01-29T15:04:12.984Z,102422.09
2023-01-29T15:06:49.791Z,102407.69
2023-01-29T15:09:37.032Z,102408.53
2023-01-29T15:12:44.194Z,102397.53
2023-01-29T15:15:35.372Z,102398.41
2023-01-29T15:18:29.116Z,102394.19
2023-01-29T15:21:04.901Z,102395.03
2023-01-29T15:23:34.224Z,102395.03
2023-01-29T15:26:04.376Z,102404.34
2023-01-29T15:28:33.123Z,102395.81
2023-01-29T15:31:02.418Z,102395.81
2023-01-29T15:33:29.195Z,102400.91
2023-01-29T15:36:08.946Z,102387.28
2023-01-29T15:38:36.130Z,102390.69
2023-01-29T15:41:18.536Z,102377.91
2023-01-29T15:43:50.590Z,102377.03
2023-01-29T15:46:25.576Z,102377.03
2023-01-29T15:48:55.545Z,102377.88
2023-01-29T15:51:25.159Z,102369.41
2023-01-29T15:54:04.450Z,102365.09
2023-01-29T15:56:52.309Z,102368.47
2023-01-29T15:59:26.041Z,102361.66
2023-01-29T16:01:53.831Z,102364.19
2023-01-29T16:04:30.908Z,102369.25
2023-01-29T16:06:58.967Z,102375.19
2023-01-29T16:09:27.128Z,102377.72
2023-01-29T16:11:57.738Z,102379.34
2023-01-29T16:14:25.744Z,102374.25
2023-01-29T16:16:52.893Z,102379.31
2023-01-29T16:19:25.247Z,102370.78
2023-01-29T16:21:56.499Z,102376.66
2023-01-29T16:24:24.930Z,102373.19
2023-01-29T16:26:58.372Z,102378.25
2023-01-29T16:29:33.370Z,102379.09
2023-01-29T16:32:02.579Z,102381.53
2023-01-29T16:34:36.459Z,102384.09
2023-01-29T16:37:06.566Z,102376.44
2023-01-29T16:39:36.767Z,102365.41
2023-01-29T16:42:12.325Z,102357.72
2023-01-29T16:44:40.332Z,102353.47
2023-01-29T16:47:13.115Z,102345.81
2023-01-29T16:49:39.494Z,102345.75
2023-01-29T16:52:18.039Z,102349.06
2023-01-29T16:54:44.544Z,102356.69
2023-01-29T16:57:18.213Z,102343.97
2023-01-29T16:59:45.626Z,102335.44
2023-01-29T17:02:33.330Z,102343.88
2023-01-29T17:05:04.119Z,102341.31
2023-01-29T17:07:32.464Z,102342.91
2023-01-29T17:10:02.026Z,102339.47
2023-01-29T17:12:30.422Z,102338.59
2023-01-29T17:15:00.413Z,102334.38
2023-01-29T17:17:35.785Z,102333.47
2023-01-29T17:20:13.990Z,102328.38
2023-01-29T17:22:40.509Z,102325.84
2023-01-29T17:25:07.640Z,102324.97
2023-01-29T17:27:34.065Z,102325.81
2023-01-29T17:30:00.544Z,102325.78
2023-01-29T17:32:44.333Z,102326.66
2023-01-29T17:35:14.252Z,102325.78
2023-01-29T17:37:41.168Z,102325.75
2023-01-29T17:40:13.712Z,102321.50
2023-01-29T17:42:40.943Z,102329.97
2023-01-29T17:45:08.196Z,102311.31
2023-01-29T17:47:34.579Z,102310.47
2023-01-29T17:50:00.957Z,102298.63
2023-01-29T17:52:27.381Z,102294.38
2023-01-29T17:54:53.753Z,102298.63
2023-01-29T17:57:20.156Z,102286.78
2023-01-29T17:59:46.843Z,102280.00
2023-01-29T18:02:29.179Z,102280.00
2023-01-29T18:04:56.223Z,102281.72
2023-01-29T18:07:22.791Z,102275.78
2023-01-29T18:09:49.187Z,102277.50
2023-01-29T18:12:15.633Z,102264.78
2023-01-29T18:14:42.096Z,102262.28
2023-01-29T18:17:08.486Z,102253.84
2023-01-29T18:19:34.896Z,102249.59
2023-01-29T18:22:01.310Z,102254.66
2023-01-29T18:24:28.007Z,102255.56
2023-01-29T18:26:54.461Z,102250.50
2023-01-29T18:29:20.872Z,102253.06
2023-01-29T18:31:50.548Z,102248.81
2023-01-29T18:34:17.234Z,102230.19
2023-01-29T18:36:46.937Z,102230.22
2023-01-29T18:39:14.684Z,102229.38
2023-01-29T18:41:41.062Z,102220.03
2023-01-29T18:44:07.572Z,102214.16
2023-01-29T18:46:34.012Z,102203.16
2023-01-29T18:49:00.494Z,102192.13
2023-01-29T18:51:26.912Z,102177.72
2023-01-29T18:53:53.358Z,102184.53
2023-01-29T18:56:20.293Z,102184.53
2023-01-29T18:58:52.106Z,102184.53
2023-01-29T19:01:19.738Z,102185.38
2023-01-29T19:03:46.287Z,102171.00
2023-01-29T19:06:13.214Z,102176.09
2023-01-29T19:08:40.895Z,102162.50
2023-01-29T19:11:08.923Z,102159.13
2023-01-29T19:13:36.627Z,102153.25
2023-01-29T19:16:09.205Z,102139.66
2023-01-29T19:18:36.080Z,102142.19
2023-01-29T19:21:10.849Z,102124.41
2023-01-29T19:23:37.514Z,102138.84
2023-01-29T19:26:04.249Z,102142.19
2023-01-29T19:28:30.749Z,102151.53
2023-01-29T19:30:58.040Z,102141.38
2023-01-29T19:33:25.212Z,102132.91
2023-01-29T19:35:51.693Z,102126.16
2023-01-29T19:38:21.218Z,102121.88
2023-01-29T19:40:48.384Z,102133.78
2023-01-29T19:43:18.201Z,102137.19
2023-01-29T19:45:50.907Z,102116.88
2023-01-29T19:48:21.249Z,102126.16
2023-01-29T19:50:55.176Z,102124.50
2023-01-29T19:53:22.836Z,102121.97
2023-01-29T19:55:57.751Z,102113.50
2023-01-29T19:58:25.246Z,102105.03
2023-01-29T20:00:56.393Z,102105.06
2023-01-29T20:03:23.189Z,102111.84
2023-01-29T20:05:49.671Z,102100.78
2023-01-29T20:08:16.156Z,102121.16
2023-01-29T20:10:47.025Z,102118.63
2023-01-29T20:13:15.066Z,102107.63
2023-01-29T20:15:52.098Z,102108.44
2023-01-29T20:18:19.299Z,102105.09
2023-01-29T20:20:47.925Z,102111.88
2023-01-29T20:23:25.019Z,102104.25
2023-01-29T20:26:02.356Z,102103.41
2023-01-29T20:28:28.949Z,102100.91
2023-01-29T20:30:56.443Z,102095.78
2023-01-29T20:33:22.882Z,102097.47
2023-01-29T20:36:01.028Z,102087.31
2023-01-29T20:38:30.507Z,102078.88
2023-01-29T20:41:05.968Z,102084.81
2023-01-29T20:43:32.630Z,102106.00
2023-01-29T20:45:59.702Z,102105.16
2023-01-29T20:48:26.580Z,102095.88
2023-01-29T20:50:54.158Z,102096.72
2023-01-29T20:53:20.650Z,102078.94
2023-01-29T20:55:47.320Z,102098.44
2023-01-29T20:58:14.090Z,102108.63
2023-01-29T21:00:41.361Z,102084.91
2023-01-29T21:03:07.877Z,102090.03
2023-01-29T21:05:34.280Z,102080.69
2023-01-29T21:08:00.818Z,102088.34
2023-01-29T21:10:27.247Z,102080.72
2023-01-29T21:12:54.686Z,102078.19
2023-01-29T21:15:21.433Z,102089.25
2023-01-29T21:17:48.246Z,102090.09
2023-01-29T21:20:15.119Z,102097.72
2023-01-29T21:22:43.884Z,102087.56
2023-01-29T21:25:10.878Z,102082.50
2023-01-29T21:27:37.480Z,102090.13
2023-01-29T21:30:04.851Z,102099.50
2023-01-29T21:32:31.464Z,102086.84
2023-01-29T21:34:57.895Z,102091.09
2023-01-29T21:37:24.383Z,102075.88
2023-01-29T21:39:50.844Z,102085.22
2023-01-29T21:42:35.846Z,102086.09
2023-01-29T21:45:02.230Z,102084.41
2023-01-29T21:47:28.595Z,102065.75
2023-01-29T21:49:55.006Z,102044.59
2023-01-29T21:52:21.531Z,102031.06
2023-01-29T21:54:49.200Z,102020.09
2023-01-29T21:57:16.996Z,102006.50
2023-01-29T21:59:43.837Z,102002.31
2023-01-29T22:02:15.304Z,101969.25
2023-01-29T22:04:42.392Z,101971.81
2023-01-29T22:07:10.451Z,101957.38
2023-01-29T22:09:37.256Z,101944.66
2023-01-29T22:12:05.450Z,101955.69
2023-01-29T22:14:32.071Z,101936.19
2023-01-29T22:16:58.522Z,101970.13
2023-01-29T22:19:29.265Z,101983.75
2023-01-29T22:21:55.725Z,101969.34
2023-01-29T22:24:22.563Z,101970.22
2023-01-29T22:26:49.600Z,101948.16
2023-01-29T22:29:19.579Z,101940.53
2023-01-29T22:31:46.398Z,101940.53
2023-01-29T22:34:14.181Z,101950.72
2023-01-29T22:36:41.047Z,101953.28
2023-01-29T22:39:08.635Z,101938.84
2023-01-29T22:41:35.457Z,101939.72
2023-01-29T22:44:01.990Z,101930.41
2023-01-29T22:46:28.532Z,101928.75
2023-01-29T22:48:54.971Z,101922.78
2023-01-29T22:51:21.367Z,101905.03
2023-01-29T22:53:53.119Z,101898.25
2023-01-29T22:56:21.874Z,101907.59
2023-01-29T22:58:52.818Z,101899.13
2023-01-29T23:01:21.847Z,101883.00
2023-01-29T23:03:48.622Z,101910.19
2023-01-29T23:06:16.317Z,101917.81
2023-01-29T23:08:42.829Z,101914.47
2023-01-29T23:11:18.675Z,101902.63
2023-01-29T23:13:50.820Z,101898.38
2023-01-29T23:16:18.560Z,101906.03
2023-01-29T23:18:45.842Z,101891.59
2023-01-29T23:21:12.598Z,101885.66
2023-01-29T23:23:39.128Z,101877.19
2023-01-29T23:26:25.797Z,101883.13
2023-01-29T23:28:52.671Z,101882.28
2023-01-29T23:31:19.265Z,101880.59
2023-01-29T23:33:45.689Z,101863.63
2023-01-29T23:36:12.639Z,101833.91
2023-01-29T23:38:39.058Z,101827.97
2023-01-29T23:41:05.805Z,101864.47
2023-01-29T23:43:32.705Z,101838.22
2023-01-29T23:45:59.514Z,101827.16
2023-01-29T23:48:26.087Z,101830.59
2023-01-29T23:50:52.604Z,101827.16
2023-01-29T23:53:19.103Z,101838.22
2023-01-29T23:55:59.003Z,101829.72
2023-01-29T23:58:26.228Z,101820.38
